Time;durP1;ratioP1;P1;durP2;ratioP2;P2;SDS_P1;SDS_P2;PMS_P1;PMS_P2;Temp;Humidity;BMP_temperature;BMP_pressure;BME280_temperature;BME280_humidity;BME280_pressure;Samples;Min_cycle;Max_cycle;Signal;HPM_P1;HPM_P2
2023/01/09 00:01:35;;;;;;;51.45;29.00;;;;;;;0.39;77.46;100677.00;5048565;28;20111;-28
2023/01/09 00:04:01;;;;;;;49.30;28.20;;;;;;;0.52;76.00;100657.53;5047105;28;20029;-27
2023/01/09 00:06:26;;;;;;;57.42;29.15;;;;;;;0.36;76.56;100658.91;5046923;28;20024;-27
2023/01/09 00:08:52;;;;;;;59.10;30.90;;;;;;;0.43;77.48;100688.06;5046847;28;20467;-26
2023/01/09 00:11:17;;;;;;;60.17;32.22;;;;;;;0.49;76.97;100686.66;5047079;28;20078;-26
2023/01/09 00:13:45;;;;;;;55.33;31.25;;;;;;;0.45;77.19;100680.03;5048429;28;20031;-27
2023/01/09 00:16:12;;;;;;;53.40;29.88;;;;;;;0.04;76.67;100660.94;5048231;28;20078;-26
2023/01/09 00:18:38;;;;;;;55.83;30.35;;;;;;;0.16;77.92;100688.72;5048432;28;20550;-26
2023/01/09 00:21:05;;;;;;;46.88;26.95;;;;;;;0.04;77.08;100689.81;5048440;28;20026;-26
2023/01/09 00:23:31;;;;;;;50.38;27.08;;;;;;;-0.34;76.54;100662.53;5048219;28;20021;-25
2023/01/09 00:26:09;;;;;;;53.55;27.33;;;;;;;-0.34;76.94;100684.31;5046496;28;20045;-25
2023/01/09 00:28:35;;;;;;;49.65;26.30;;;;;;;-0.30;76.99;100653.44;5048502;28;20402;-26
2023/01/09 00:31:02;;;;;;;51.72;26.80;;;;;;;-0.28;76.68;100660.22;5052149;28;20037;-26
2023/01/09 00:34:01;;;;;;;51.45;27.50;;;;;;;-0.21;77.26;100663.13;5051990;28;20040;-25
2023/01/09 00:36:28;;;;;;;52.97;28.38;;;;;;;-0.18;77.93;100655.00;5036567;28;20044;-25
2023/01/09 00:38:53;;;;;;;54.38;29.73;;;;;;;-0.19;77.79;100650.69;5051989;28;20025;-26
2023/01/09 00:41:30;;;;;;;57.38;30.33;;;;;;;-0.12;77.76;100662.31;5051835;28;20075;-27
2023/01/09 00:44:22;;;;;;;58.83;31.48;;;;;;;0.10;77.28;100661.25;5050501;28;20033;-26
2023/01/09 00:46:52;;;;;;;58.65;30.63;;;;;;;0.35;76.15;100666.94;5051994;28;20032;-25
2023/01/09 00:49:18;;;;;;;66.10;32.33;;;;;;;0.13;75.86;100645.25;5051872;28;20515;-26
2023/01/09 00:51:43;;;;;;;57.20;31.33;;;;;;;0.14;75.67;100641.66;5051614;28;20092;-25
2023/01/09 00:54:13;;;;;;;63.60;32.20;;;;;;;0.13;75.99;100665.41;5050102;28;20029;-28
2023/01/09 00:56:39;;;;;;;61.30;31.10;;;;;;;-0.28;76.65;100633.19;5049902;28;20053;-24
2023/01/09 00:59:06;;;;;;;51.72;28.58;;;;;;;-0.70;75.86;100630.69;5051414;28;20076;-26
2023/01/09 01:01:31;;;;;;;59.28;31.45;;;;;;;-0.35;75.72;100650.38;5051480;28;20493;-25
2023/01/09 01:03:57;;;;;;;53.33;27.50;;;;;;;-0.77;76.18;100640.88;5051498;28;20028;-28
2023/01/09 01:09:07;;;;;;;51.72;26.45;;;;;;;-0.66;76.47;100643.38;5051401;28;20040;-25
2023/01/09 01:11:33;;;;;;;49.28;25.60;;;;;;;-0.98;76.25;100632.22;5051443;28;20021;-26
2023/01/09 01:14:00;;;;;;;50.55;26.13;;;;;;;-0.99;76.69;100643.66;5049953;28;20469;-24
2023/01/09 01:16:25;;;;;;;53.20;26.75;;;;;;;-1.42;75.36;100598.34;5051029;28;20025;-25
2023/01/09 01:18:51;;;;;;;54.42;25.90;;;;;;;-0.97;75.91;100623.41;5051322;28;20033;-27
2023/01/09 01:21:17;;;;;;;52.05;26.38;;;;;;;-1.16;76.82;100604.03;5050816;28;20025;-26
2023/01/09 01:23:43;;;;;;;49.40;25.83;;;;;;;-1.09;76.01;100588.63;5051046;28;20560;-25
2023/01/09 01:26:14;;;;;;;44.65;25.10;;;;;;;-0.83;77.29;100620.44;5048887;28;20198;-24
2023/01/09 01:28:40;;;;;;;47.67;24.98;;;;;;;-0.63;76.71;100629.22;5049889;28;20417;-24
2023/01/09 01:31:06;;;;;;;49.35;26.30;;;;;;;-0.47;75.69;100624.31;5050937;28;20414;-25
2023/01/09 01:33:33;;;;;;;51.92;26.48;;;;;;;-0.84;76.45;100603.91;5051079;28;20021;-24
2023/01/09 01:36:07;;;;;;;49.83;26.23;;;;;;;-1.03;77.26;100619.50;5050628;28;20025;-27
2023/01/09 01:38:33;;;;;;;46.88;24.27;;;;;;;-1.07;76.87;100612.88;5048697;28;20041;-28
2023/01/09 01:40:59;;;;;;;44.55;24.17;;;;;;;-1.32;77.50;100594.00;5050570;28;20074;-28
2023/01/09 01:43:25;;;;;;;48.80;25.17;;;;;;;-1.29;77.09;100604.25;5049999;28;20024;-27
2023/01/09 01:45:50;;;;;;;44.00;24.40;;;;;;;-1.15;77.68;100610.09;5049960;28;20090;-27
2023/01/09 01:48:21;;;;;;;72.03;32.60;;;;;;;-0.85;78.76;100580.47;5048624;28;20443;-26
2023/01/09 01:51:02;;;;;;;71.13;33.83;;;;;;;-0.17;78.17;100619.13;5049192;28;20161;-27
2023/01/09 01:53:27;;;;;;;71.97;31.30;;;;;;;-0.12;77.96;100623.00;5050333;28;20464;-25
2023/01/09 01:55:56;;;;;;;75.03;33.67;;;;;;;0.06;76.44;100617.06;5050545;28;20037;-26
2023/01/09 01:58:21;;;;;;;;;;;;;;;-0.23;79.26;100607.38;5049444;28;20025;-26
2023/01/09 02:00:47;;;;;;;73.35;32.92;;;;;;;-0.44;79.51;100600.44;5050305;28;20564;-26
2023/01/09 02:03:16;;;;;;;81.38;34.95;;;;;;;-0.38;79.73;100598.25;5048740;28;20032;-26
2023/01/09 02:05:43;;;;;;;74.80;34.78;;;;;;;-0.85;80.24;100570.81;5050142;28;20033;-25
2023/01/09 02:08:09;;;;;;;80.50;35.15;;;;;;;-0.96;81.63;100589.25;5049925;28;20029;-26
2023/01/09 02:10:38;;;;;;;90.00;37.67;;;;;;;-1.01;82.13;100573.09;5050354;28;20017;-27
2023/01/09 02:13:05;;;;;;;79.03;33.28;;;;;;;-1.12;80.42;100584.50;5049847;28;20159;-28
2023/01/09 02:15:55;;;;;;;80.32;32.03;;;;;;;-1.30;80.50;100586.88;5048610;28;20123;-27
2023/01/09 02:18:45;;;;;;;61.28;27.90;;;;;;;-1.32;79.75;100586.16;5049994;28;20032;-25
2023/01/09 02:21:49;;;;;;;69.47;29.27;;;;;;;-1.38;80.84;100589.28;5049862;28;20031;-26
2023/01/09 02:24:26;;;;;;;70.65;30.85;;;;;;;-1.03;81.59;100582.88;5049612;28;20078;-26
2023/01/09 02:27:06;;;;;;;69.40;32.17;;;;;;;-1.05;82.45;100582.16;5049779;28;20104;-27
2023/01/09 02:29:56;;;;;;;75.50;31.95;;;;;;;-0.93;82.28;100572.44;5048726;28;20124;-25
2023/01/09 02:32:58;;;;;;;78.85;34.22;;;;;;;-1.25;82.70;100545.44;5048119;28;20756;-25
2023/01/09 02:35:35;;;;;;;98.72;42.00;;;;;;;-1.14;82.85;100564.66;5048198;28;20033;-24
2023/01/09 02:38:16;;;;;;;234.18;90.10;;;;;;;-1.31;84.00;100532.88;5047697;28;20025;-26
2023/01/09 02:40:51;;;;;;;109.65;47.20;;;;;;;-1.06;83.10;100557.78;5047733;28;20406;-26
2023/01/09 02:43:16;;;;;;;108.68;45.25;;;;;;;-0.97;82.64;100556.16;5048805;28;20029;-27
2023/01/09 02:45:42;;;;;;;90.03;41.28;;;;;;;-0.94;82.56;100560.28;5043652;28;20036;-27
2023/01/09 02:48:11;;;;;;;92.28;40.00;;;;;;;-0.74;82.53;100527.97;5029043;28;20475;-25
2023/01/09 02:51:07;;;;;;;69.50;34.30;;;;;;;-0.27;81.63;100569.28;5029693;28;20158;-25
2023/01/09 02:53:59;;;;;;;64.30;33.28;;;;;;;-0.28;81.97;100562.41;5029083;28;20504;-28
2023/01/09 02:56:43;;;;;;;76.68;38.35;;;;;;;-0.45;82.36;100535.91;5029460;28;20057;-24
2023/01/09 02:59:11;;;;;;;75.22;35.33;;;;;;;-0.27;81.33;100553.56;5029510;28;20025;-25
2023/01/09 03:01:39;;;;;;;;;;;;;;;-0.38;80.37;100556.31;5029423;28;20057;-26
2023/01/09 03:04:23;;;;;;;;;;;;;;;-0.76;81.58;100550.03;5028428;28;19952;-28
2023/01/09 03:07:07;;;;;;;64.43;28.65;;;;;;;-1.05;81.11;100541.09;5029164;28;19917;-26
2023/01/09 03:09:37;;;;;;;59.53;29.15;;;;;;;-1.11;81.30;100539.00;5029378;28;20033;-25
2023/01/09 03:12:11;;;;;;;58.25;29.00;;;;;;;-1.26;81.31;100515.00;5028765;28;20147;-25
2023/01/09 03:14:42;;;;;;;67.95;30.40;;;;;;;-1.15;82.38;100536.81;5029218;28;20033;-26
2023/01/09 03:17:12;;;;;;;71.70;32.60;;;;;;;-1.09;82.15;100533.66;5032679;28;20037;-27
2023/01/09 03:19:40;;;;;;;66.25;30.77;;;;;;;-0.92;81.21;100534.81;5035985;28;20031;-25
2023/01/09 03:22:07;;;;;;;72.85;32.40;;;;;;;-0.93;82.36;100536.59;5037544;28;20032;-24
2023/01/09 03:24:32;;;;;;;62.13;31.60;;;;;;;-0.78;82.28;100544.09;5038844;28;20041;-26
2023/01/09 03:26:57;;;;;;;67.03;31.20;;;;;;;-0.62;80.47;100554.88;5036823;28;20387;-25
2023/01/09 03:29:23;;;;;;;67.25;32.38;;;;;;;-0.79;80.12;100529.38;5038343;28;20025;-26
2023/01/09 03:31:48;;;;;;;64.85;31.83;;;;;;;-0.81;80.51;100555.69;5038258;28;20025;-27
2023/01/09 03:34:14;;;;;;;71.20;31.90;;;;;;;-0.73;80.03;100547.97;5028915;28;20103;-25
2023/01/09 03:36:39;;;;;;;72.60;32.97;;;;;;;-1.02;81.18;100517.31;5028770;28;20094;-27
2023/01/09 03:39:05;;;;;;;65.95;33.15;;;;;;;-0.99;81.02;100552.84;5026763;28;20545;-29
2023/01/09 03:41:30;;;;;;;69.15;31.48;;;;;;;-0.82;81.37;100552.22;5028553;28;20142;-31
2023/01/09 03:43:55;;;;;;;59.72;30.85;;;;;;;-0.76;81.00;100547.41;5026929;28;20033;-27
2023/01/09 03:46:21;;;;;;;53.33;28.95;;;;;;;-1.24;82.70;100527.94;5010707;28;20762;-26
2023/01/09 03:48:46;;;;;;;53.47;28.98;;;;;;;-1.24;83.06;100544.47;5027372;28;20029;-26
2023/01/09 03:51:12;;;;;;;51.97;27.38;;;;;;;-1.20;84.60;100547.66;5029037;28;20478;-26
2023/01/09 03:53:37;;;;;;;49.90;26.13;;;;;;;-1.20;83.72;100523.28;5028734;28;20021;-27
2023/01/09 03:56:03;;;;;;;59.85;32.25;;;;;;;-1.04;83.82;100539.34;5027020;28;20033;-26
2023/01/09 03:58:28;;;;;;;56.15;30.17;;;;;;;-0.87;84.46;100557.03;5028877;28;20027;-25
2023/01/09 04:01:02;;;;;;;39.80;22.98;;;;;;;-0.90;85.09;100541.59;5028608;28;20395;-25
2023/01/09 04:03:28;;;;;;;44.75;23.95;;;;;;;-0.92;85.56;100543.53;5030371;28;20053;-26
2023/01/09 04:05:53;;;;;;;44.38;24.35;;;;;;;-0.99;85.66;100523.22;5031214;28;20061;-27
2023/01/09 04:08:19;;;;;;;45.67;25.02;;;;;;;-0.98;86.05;100535.34;5032359;28;20025;-24
2023/01/09 04:10:46;;;;;;;46.42;24.52;;;;;;;-0.98;86.62;100544.03;5031180;28;20029;-25
2023/01/09 04:13:12;;;;;;;48.33;25.83;;;;;;;-1.03;85.94;100514.81;5031388;28;20025;-28
2023/01/09 04:15:37;;;;;;;50.67;26.42;;;;;;;-0.75;86.38;100543.84;5031165;28;20088;-25
2023/01/09 04:18:03;;;;;;;64.63;27.83;;;;;;;-0.85;87.55;100534.16;5030998;28;20045;-25
2023/01/09 04:20:29;;;;;;;63.35;28.98;;;;;;;-0.72;89.13;100543.56;5032480;28;20116;-25
2023/01/09 04:22:54;;;;;;;74.65;29.58;;;;;;;-1.10;91.62;100529.41;5032011;28;20033;-25
2023/01/09 04:25:21;;;;;;;60.20;28.08;;;;;;;-1.26;93.33;100515.00;5031890;28;20049;-25
2023/01/09 04:27:47;;;;;;;72.97;29.70;;;;;;;-1.08;93.15;100537.94;5032166;28;20038;-25
2023/01/09 04:30:13;;;;;;;88.70;29.98;;;;;;;-1.25;94.60;100511.44;5032031;28;20556;-29
2023/01/09 04:32:39;;;;;;;78.82;29.30;;;;;;;-1.11;93.88;100546.03;5031954;28;20022;-26
2023/01/09 04:35:05;;;;;;;67.15;28.98;;;;;;;-1.19;95.42;100548.50;5032184;28;20029;-28
2023/01/09 04:37:30;;;;;;;82.72;29.90;;;;;;;-1.31;96.68;100538.13;5031998;28;20104;-25
2023/01/09 04:39:56;;;;;;;76.70;30.10;;;;;;;-1.23;97.00;100567.09;5030737;28;20120;-26
2023/01/09 04:42:22;;;;;;;80.45;29.75;;;;;;;-1.07;97.86;100565.75;5032226;28;20029;-26
2023/01/09 04:44:47;;;;;;;88.20;31.52;;;;;;;-1.01;97.15;100566.06;5032052;28;20131;-26
2023/01/09 04:47:13;;;;;;;79.82;30.98;;;;;;;-0.90;97.17;100562.53;5031859;28;20139;-26
2023/01/09 04:49:39;;;;;;;83.25;34.28;;;;;;;-0.74;97.18;100569.06;5031984;28;20041;-27
2023/01/09 04:52:04;;;;;;;98.40;35.85;;;;;;;-0.61;96.43;100570.47;5031526;28;20108;-27
2023/01/09 04:54:30;;;;;;;102.60;40.78;;;;;;;-0.60;96.98;100568.69;5030798;28;20215;-27
2023/01/09 04:56:55;;;;;;;90.90;36.17;;;;;;;-0.48;96.95;100561.53;5031892;28;20453;-25
2023/01/09 04:59:21;;;;;;;103.90;35.35;;;;;;;-0.22;96.75;100573.16;5032087;28;20040;-25
2023/01/09 05:01:46;;;;;;;77.55;32.85;;;;;;;-0.28;96.50;100572.91;5031587;28;20033;-26
2023/01/09 05:04:13;;;;;;;93.75;34.50;;;;;;;-0.21;96.30;100579.22;5031549;28;20021;-24
2023/01/09 05:06:38;;;;;;;90.10;33.60;;;;;;;-0.06;96.22;100579.66;5031371;28;20567;-25
2023/01/09 05:09:04;;;;;;;93.65;35.67;;;;;;;-0.02;96.54;100576.66;5030558;28;20041;-28
2023/01/09 05:11:30;;;;;;;90.65;37.38;;;;;;;-0.18;97.47;100563.25;5030051;28;20040;-26
2023/01/09 05:13:55;;;;;;;90.40;35.10;;;;;;;-0.31;97.82;100550.38;5031611;28;20045;-26
2023/01/09 05:16:21;;;;;;;94.78;34.88;;;;;;;-0.32;98.48;100566.28;5030621;28;20033;-26
2023/01/09 05:18:46;;;;;;;77.55;33.10;;;;;;;-0.25;99.23;100549.03;5031304;28;20039;-26
2023/01/09 05:21:12;;;;;;;111.03;34.78;;;;;;;-0.14;99.20;100561.16;5029603;28;20026;-29
2023/01/09 05:23:38;;;;;;;100.00;34.17;;;;;;;-0.32;98.86;100532.19;5031137;28;20029;-26
2023/01/09 05:26:03;;;;;;;80.43;31.42;;;;;;;-0.16;99.53;100563.94;5030676;28;20037;-28
2023/01/09 05:28:30;;;;;;;94.18;34.55;;;;;;;-0.17;99.31;100559.66;5031298;28;20029;-26
2023/01/09 05:30:56;;;;;;;90.28;33.25;;;;;;;-0.10;98.23;100539.78;5031222;28;20030;-25
2023/01/09 05:33:21;;;;;;;112.60;43.40;;;;;;;0.04;98.71;100558.69;5030937;28;20383;-25
2023/01/09 05:35:47;;;;;;;83.25;32.60;;;;;;;-0.11;99.29;100553.84;5030931;28;20049;-27
2023/01/09 05:38:12;;;;;;;85.50;31.65;;;;;;;-0.05;99.58;100562.97;5030890;28;20025;-25
2023/01/09 05:40:38;;;;;;;82.40;31.80;;;;;;;-0.18;100.00;100571.13;5031019;28;20079;-27
2023/01/09 05:43:03;;;;;;;77.95;30.70;;;;;;;-0.09;100.00;100559.78;5030853;28;20037;-26
2023/01/09 05:45:29;;;;;;;81.38;29.77;;;;;;;-0.27;99.84;100543.09;5030825;28;20029;-25
2023/01/09 05:47:54;;;;;;;90.55;34.08;;;;;;;-0.31;100.00;100544.31;5030652;28;20108;-26
2023/01/09 05:50:20;;;;;;;89.82;33.92;;;;;;;-0.15;100.00;100557.72;5030389;28;20029;-25
2023/01/09 05:52:45;;;;;;;111.53;38.53;;;;;;;0.05;100.00;100562.97;5030700;28;20040;-26
2023/01/09 05:55:12;;;;;;;100.55;35.38;;;;;;;-0.05;100.00;100553.31;5030818;28;20025;-26
2023/01/09 05:57:37;;;;;;;107.40;40.42;;;;;;;0.09;100.00;100553.88;5030698;28;20056;-27
2023/01/09 06:00:04;;;;;;;116.60;44.03;;;;;;;0.19;100.00;100568.63;5040171;28;20799;-28
2023/01/09 06:02:29;;;;;;;164.07;61.15;;;;;;;0.24;100.00;100557.72;5039208;28;20025;-27
2023/01/09 06:04:55;;;;;;;160.05;62.55;;;;;;;0.37;100.00;100578.44;5038891;28;20033;-28
2023/01/09 06:07:20;;;;;;;151.35;59.40;;;;;;;0.50;99.44;100572.88;5040390;28;20020;-30
2023/01/09 06:09:45;;;;;;;121.93;45.70;;;;;;;0.34;100.00;100552.47;5021225;28;20045;-26
2023/01/09 06:12:11;;;;;;;106.22;40.22;;;;;;;0.38;100.00;100548.59;5033060;28;20866;-27
2023/01/09 06:14:36;;;;;;;104.80;40.88;;;;;;;0.53;99.11;100533.22;5030252;28;20113;-26
2023/01/09 06:17:02;;;;;;;119.85;46.33;;;;;;;0.87;98.39;100559.78;5029979;28;20029;-28
2023/01/09 06:19:27;;;;;;;120.93;53.03;;;;;;;0.80;97.80;100558.72;5030051;28;20068;-25
2023/01/09 06:21:53;;;;;;;122.88;47.92;;;;;;;0.80;96.90;100564.78;5030277;28;20386;-24
2023/01/09 06:24:18;;;;;;;136.18;50.28;;;;;;;0.96;95.78;100561.56;5029938;28;20033;-25
2023/01/09 06:26:44;;;;;;;108.57;39.45;;;;;;;0.73;96.46;100561.06;5028907;28;20099;-26
2023/01/09 06:29:09;;;;;;;159.95;61.55;;;;;;;0.59;98.03;100541.38;5029958;28;20056;-26
2023/01/09 06:31:35;;;;;;;200.25;72.40;;;;;;;0.72;96.98;100545.47;5029647;28;20065;-27
2023/01/09 06:34:00;;;;;;;103.78;42.00;;;;;;;0.87;96.90;100559.78;5029427;28;20424;-26
2023/01/09 06:36:26;;;;;;;105.35;41.05;;;;;;;0.71;97.19;100544.63;5028415;28;20033;-25
2023/01/09 06:38:51;;;;;;;150.32;54.55;;;;;;;0.76;96.99;100541.59;5030048;28;20120;-27
2023/01/09 06:41:17;;;;;;;155.35;68.75;;;;;;;0.96;96.08;100555.47;5029596;28;20029;-26
2023/01/09 06:43:42;;;;;;;107.95;48.85;;;;;;;0.97;95.65;100560.56;5029627;28;20028;-27
2023/01/09 06:46:08;;;;;;;193.75;77.40;;;;;;;1.16;94.73;100570.16;5029419;28;20037;-26
2023/01/09 06:48:34;;;;;;;114.80;50.15;;;;;;;1.29;94.19;100566.38;5028106;28;20033;-27
2023/01/09 06:50:59;;;;;;;84.57;39.63;;;;;;;1.11;94.66;100555.84;5029304;28;20040;-26
2023/01/09 06:53:25;;;;;;;114.45;50.38;;;;;;;1.20;94.56;100550.50;5029760;28;20033;-26
2023/01/09 06:55:50;;;;;;;70.22;34.80;;;;;;;1.17;93.53;100534.22;5029049;28;20044;-26
2023/01/09 06:58:16;;;;;;;85.53;36.90;;;;;;;1.41;94.04;100559.97;5027980;28;20037;-26
2023/01/09 07:00:41;;;;;;;82.50;37.53;;;;;;;1.30;93.15;100555.72;5027350;28;20120;-27
2023/01/09 07:03:07;;;;;;;79.78;36.22;;;;;;;1.51;93.64;100563.38;5027336;28;20037;-29
2023/01/09 07:05:38;;;;;;;74.22;36.63;;;;;;;1.50;93.16;100551.19;5028444;28;20038;-28
2023/01/09 07:08:04;;;;;;;81.60;38.55;;;;;;;1.43;93.08;100554.53;5028507;28;20029;-28
2023/01/09 07:10:29;;;;;;;208.90;96.32;;;;;;;1.35;93.46;100532.47;5035287;28;20122;-25
2023/01/09 07:12:55;;;;;;;233.10;106.65;;;;;;;1.47;93.49;100562.00;5046057;28;20142;-25
2023/01/09 07:15:21;;;;;;;258.55;120.53;;;;;;;1.73;92.77;100556.03;5048979;28;20616;-27
2023/01/09 07:17:49;;;;;;;103.03;49.78;;;;;;;1.73;92.93;100551.56;5048649;28;20540;-26
2023/01/09 07:20:15;;;;;;;111.65;52.65;;;;;;;1.55;92.87;100527.06;5047568;28;20025;-26
2023/01/09 07:22:40;;;;;;;78.00;38.72;;;;;;;1.71;92.11;100552.72;5049200;28;20462;-26
2023/01/09 07:25:06;;;;;;;86.15;40.45;;;;;;;1.59;92.57;100524.03;5048561;28;20053;-31
2023/01/09 07:27:31;;;;;;;70.32;34.88;;;;;;;1.87;92.43;100552.88;5048593;28;20512;-26
2023/01/09 07:29:57;;;;;;;78.97;34.38;;;;;;;1.96;91.58;100554.59;5048639;28;20116;-27
2023/01/09 07:32:23;;;;;;;90.57;39.20;;;;;;;2.00;92.04;100542.81;5048508;28;20025;-30
2023/01/09 07:34:50;;;;;;;87.00;40.40;;;;;;;1.78;92.65;100548.53;5043157;28;20132;-28
2023/01/09 07:37:15;;;;;;;75.55;34.80;;;;;;;1.69;93.85;100544.16;5037083;28;20045;-28
2023/01/09 07:39:41;;;;;;;76.57;36.20;;;;;;;1.87;92.69;100542.34;5036513;28;20029;-28
2023/01/09 07:42:06;;;;;;;86.72;39.65;;;;;;;1.92;93.02;100549.78;5036618;28;20124;-28
2023/01/09 07:44:32;;;;;;;98.78;40.22;;;;;;;1.58;94.24;100516.28;5037902;28;20026;-28
2023/01/09 07:46:57;;;;;;;102.43;42.35;;;;;;;1.63;94.55;100518.44;5036418;28;20033;-28
2023/01/09 07:49:23;;;;;;;112.80;45.70;;;;;;;1.81;94.81;100528.00;5039002;28;20088;-29
2023/01/09 07:51:48;;;;;;;88.35;37.80;;;;;;;1.96;94.77;100528.31;5036629;28;20021;-27
2023/01/09 07:54:14;;;;;;;91.95;39.80;;;;;;;2.06;93.73;100520.31;5036004;28;20037;-28
2023/01/09 07:56:39;;;;;;;94.07;41.33;;;;;;;2.17;93.88;100527.97;5036448;28;20029;-25
2023/01/09 07:59:05;;;;;;;86.80;38.63;;;;;;;2.25;93.01;100524.59;5036304;28;20032;-27
2023/01/09 08:01:31;;;;;;;102.28;42.05;;;;;;;2.21;93.12;100525.88;5030090;28;20029;-27
2023/01/09 08:03:56;;;;;;;102.80;40.88;;;;;;;2.03;94.38;100504.03;5027944;28;20116;-27
2023/01/09 08:06:22;;;;;;;90.90;39.60;;;;;;;1.96;94.29;100514.31;5026183;28;20037;-27
2023/01/09 08:08:47;;;;;;;89.70;38.53;;;;;;;2.20;94.00;100532.09;5028415;28;20600;-27
2023/01/09 08:11:12;;;;;;;81.20;40.70;;;;;;;1.90;94.17;100507.03;5027350;28;20107;-25
2023/01/09 08:13:38;;;;;;;77.55;37.15;;;;;;;2.08;94.41;100526.25;5028263;28;20029;-26
2023/01/09 08:16:04;;;;;;;79.38;38.55;;;;;;;2.20;94.08;100522.38;5028152;28;20083;-28
2023/01/09 08:18:29;;;;;;;81.13;39.83;;;;;;;2.46;92.94;100536.56;5027928;28;20508;-27
2023/01/09 08:20:55;;;;;;;91.40;39.53;;;;;;;2.38;93.12;100532.88;5028227;28;20030;-26
2023/01/09 08:23:20;;;;;;;82.30;40.05;;;;;;;2.29;93.20;100530.34;5028177;28;20040;-27
2023/01/09 08:25:45;;;;;;;87.10;39.83;;;;;;;2.38;91.98;100511.84;5028354;28;20045;-27
2023/01/09 08:28:11;;;;;;;79.85;39.80;;;;;;;2.34;92.30;100512.31;5027963;28;20390;-26
2023/01/09 08:30:37;;;;;;;69.40;36.35;;;;;;;2.53;91.33;100529.69;5032247;28;20471;-27
2023/01/09 08:33:02;;;;;;;71.97;36.22;;;;;;;2.63;91.30;100522.50;5036776;28;20428;-27
2023/01/09 08:35:28;;;;;;;76.60;36.65;;;;;;;2.81;89.90;100519.81;5037756;28;20040;-30
2023/01/09 08:37:53;;;;;;;86.85;42.15;;;;;;;2.83;89.72;100511.75;5048207;28;20028;-26
2023/01/09 08:40:19;;;;;;;75.20;37.58;;;;;;;2.79;89.38;100505.97;5047937;28;20421;-26
2023/01/09 08:48:14;;;;;;;79.68;40.70;;;;;;;3.12;88.67;100517.47;5045488;28;20112;-27
2023/01/09 08:50:40;;;;;;;84.97;42.85;;;;;;;2.94;88.96;100493.03;5039786;28;20032;-26
2023/01/09 08:53:05;;;;;;;69.68;39.58;;;;;;;3.08;90.05;100515.31;5039767;28;20037;-26
2023/01/09 08:55:30;;;;;;;91.45;44.58;;;;;;;2.97;89.88;100511.16;5040443;28;20036;-25
2023/01/09 08:57:56;;;;;;;116.25;57.17;;;;;;;3.12;88.84;100512.19;5040824;28;20107;-29
2023/01/09 09:00:23;;;;;;;85.78;44.00;;;;;;;3.17;87.99;100494.13;5040663;28;20052;-29
2023/01/09 09:02:56;;;;;;;88.75;44.60;;;;;;;3.45;87.46;100514.13;5040988;28;20112;-28
2023/01/09 09:05:22;;;;;;;96.15;48.10;;;;;;;3.41;87.80;100510.97;5039992;28;20028;-28
2023/01/09 09:07:49;;;;;;;84.65;43.88;;;;;;;3.21;88.65;100482.28;5039582;28;20088;-27
2023/01/09 09:10:18;;;;;;;87.30;46.05;;;;;;;3.41;87.90;100510.97;5038429;28;20036;-27
2023/01/09 09:12:46;;;;;;;81.82;47.53;;;;;;;3.80;86.43;100505.09;5041444;28;20028;-25
2023/01/09 09:15:12;;;;;;;80.95;42.25;;;;;;;3.53;86.77;100478.03;5048779;28;20029;-25
2023/01/09 09:17:39;;;;;;;81.32;44.58;;;;;;;3.69;88.12;100492.25;5051084;28;20060;-28
2023/01/09 09:20:06;;;;;;;77.88;40.42;;;;;;;3.54;86.49;100490.25;5051014;28;20032;-26
2023/01/09 09:22:31;;;;;;;85.03;49.33;;;;;;;3.77;85.87;100489.59;5050949;28;20033;-26
2023/01/09 09:24:56;;;;;;;83.63;44.03;;;;;;;3.72;86.11;100465.53;5050941;28;22125;-26
2023/01/09 09:27:22;;;;;;;79.57;43.45;;;;;;;3.94;85.52;100472.81;5033197;28;20159;-28
2023/01/09 09:29:47;;;;;;;85.63;44.08;;;;;;;3.79;86.02;100461.25;5031447;28;20029;-26
2023/01/09 09:32:13;;;;;;;71.72;40.35;;;;;;;4.03;85.97;100466.53;5030718;28;20036;-26
2023/01/09 09:34:38;;;;;;;83.45;44.17;;;;;;;4.22;85.06;100472.44;5029725;28;20121;-26
2023/01/09 09:37:04;;;;;;;91.22;56.25;;;;;;;4.25;84.85;100443.06;5029458;28;20421;-29
2023/01/09 09:39:29;;;;;;;78.93;42.53;;;;;;;4.51;84.08;100458.66;5029200;28;20026;-28
2023/01/09 09:45:12;;;;;;;78.00;41.75;;;;;;;4.83;83.12;100455.09;5030986;28;20048;-25
2023/01/09 09:48:10;;;;;;;86.03;43.22;;;;;;;4.71;83.50;100453.81;5029319;28;20060;-26
2023/01/09 09:50:59;;;;;;;78.60;44.05;;;;;;;4.66;83.15;100458.81;5029796;28;20057;-27
2023/01/09 09:53:44;;;;;;;78.63;44.38;;;;;;;4.78;84.10;100457.44;5030538;28;20029;-26
2023/01/09 09:56:13;;;;;;;87.85;47.80;;;;;;;4.80;82.43;100436.94;5028888;28;20116;-29
2023/01/09 09:58:47;;;;;;;103.80;52.67;;;;;;;4.92;83.50;100433.91;5031009;28;20032;-25
2023/01/09 10:01:20;;;;;;;93.93;50.13;;;;;;;5.14;83.10;100437.59;5030048;28;20030;-27
2023/01/09 10:03:50;;;;;;;81.45;46.58;;;;;;;5.35;82.36;100447.56;5028678;28;20025;-33
2023/01/09 10:06:20;;;;;;;87.20;47.78;;;;;;;5.19;82.69;100430.81;5031565;28;20024;-29
2023/01/09 10:08:55;;;;;;;76.97;44.42;;;;;;;5.11;83.04;100436.13;5032338;28;20025;-28
2023/01/09 10:11:26;;;;;;;75.90;42.72;;;;;;;5.41;86.68;100431.81;5029769;28;20028;-27
2023/01/09 10:14:04;;;;;;;93.38;45.97;;;;;;;6.48;92.63;100432.69;5029177;28;20773;-28
2023/01/09 10:16:47;;;;;;;76.22;40.88;;;;;;;6.97;77.76;100438.22;5028830;28;20034;-26
2023/01/09 10:19:24;;;;;;;65.25;36.85;;;;;;;10.70;68.55;100441.72;5029851;28;20116;-26
2023/01/09 10:22:17;;;;;;;55.28;32.92;;;;;;;9.63;66.01;100441.81;5030607;28;20087;-27
2023/01/09 10:25:12;;;;;;;55.92;31.73;;;;;;;13.51;54.79;100446.25;5029753;28;20485;-27
2023/01/09 10:28:11;;;;;;;48.78;29.65;;;;;;;12.02;53.91;100454.53;5020025;28;20049;-28
2023/01/09 10:30:55;;;;;;;47.63;28.20;;;;;;;11.05;58.79;100446.69;5030272;28;20029;-27
2023/01/09 10:33:38;;;;;;;44.60;28.63;;;;;;;12.85;56.90;100440.72;5029883;28;20083;-26
2023/01/09 10:36:15;;;;;;;45.08;28.50;;;;;;;15.10;53.51;100432.88;5029873;28;20429;-26
2023/01/09 10:38:46;;;;;;;39.33;24.70;;;;;;;13.89;53.00;100426.28;5042520;28;20064;-26
2023/01/09 10:41:21;;;;;;;36.42;22.67;;;;;;;15.68;46.17;100435.28;5049486;28;20033;-29
2023/01/09 10:43:58;;;;;;;35.42;23.00;;;;;;;13.15;54.00;100417.69;5049583;28;20259;-26
2023/01/09 10:46:34;;;;;;;37.17;23.30;;;;;;;16.97;45.78;100429.06;5049547;28;20126;-26
2023/01/09 10:49:04;;;;;;;28.73;18.92;;;;;;;18.01;42.01;100417.06;5048469;28;20266;-29
2023/01/09 10:51:58;;;;;;;30.48;19.92;;;;;;;18.21;42.93;100415.59;5042236;28;20026;-28
2023/01/09 10:54:24;;;;;;;36.92;20.15;;;;;;;18.18;39.63;100426.91;5049909;28;20511;-30
2023/01/09 10:56:55;;;;;;;31.10;19.98;;;;;;;13.08;48.30;100404.41;5048653;28;20032;-29
2023/01/09 10:59:23;;;;;;;32.42;20.85;;;;;;;13.24;54.90;100398.41;5047433;28;20033;-29
2023/01/09 11:01:49;;;;;;;33.97;20.40;;;;;;;13.27;52.07;100400.59;5048577;28;20080;-28
2023/01/09 11:04:34;;;;;;;34.47;22.42;;;;;;;14.54;50.79;100403.03;5048395;28;20294;-29
2023/01/09 11:07:04;;;;;;;47.78;28.02;;;;;;;17.11;43.28;100413.31;5048295;28;20025;-28
2023/01/09 11:09:55;;;;;;;33.20;23.65;;;;;;;13.90;50.43;100409.16;5048698;28;20056;-27
2023/01/09 11:12:32;;;;;;;44.67;34.53;;;;;;;11.33;56.69;100400.16;5047959;28;20040;-28
2023/01/09 11:15:15;;;;;;;56.25;40.17;;;;;;;10.40;58.05;100383.56;5037204;28;20092;-28
2023/01/09 11:17:45;;;;;;;45.35;25.88;;;;;;;9.90;60.74;100388.53;5028205;28;20566;-27
2023/01/09 11:20:17;;;;;;;35.08;22.75;;;;;;;9.17;67.00;100386.63;5027959;28;20087;-28
2023/01/09 11:22:51;;;;;;;40.80;26.10;;;;;;;9.35;64.92;100393.22;5028886;28;20030;-25
2023/01/09 11:25:19;;;;;;;40.55;24.65;;;;;;;9.23;70.29;100388.53;5027168;28;20054;-26
2023/01/09 11:28:17;;;;;;;42.57;26.60;;;;;;;8.09;65.60;100377.56;5028879;28;20068;-27
2023/01/09 11:30:53;;;;;;;;;;;;;;;7.60;71.03;100374.78;5027275;28;20568;-26
2023/01/09 11:33:31;;;;;;;48.33;28.02;;;;;;;8.65;72.24;100346.41;5028735;28;19944;-26